sensor_id;sensor_type;location;lat;lon;timestamp;P1;durP1;ratioP1;P2;durP2;ratioP2
21581;SDS011;10952;50.836;4.348;2023-02-19T00:01:18;15.50;;;7.67;;
21581;SDS011;10952;50.836;4.348;2023-02-19T00:03:52;16.50;;;7.87;;
21581;SDS011;10952;50.836;4.348;2023-02-19T00:06:23;12.80;;;7.43;;
21581;SDS011;10952;50.836;4.348;2023-02-19T00:08:50;12.17;;;7.50;;
21581;SDS011;10952;50.836;4.348;2023-02-19T00:11:17;13.40;;;7.63;;
21581;SDS011;10952;50.836;4.348;2023-02-19T00:13:45;13.40;;;7.57;;
21581;SDS011;10952;50.836;4.348;2023-02-19T00:16:17;12.10;;;7.90;;
21581;SDS011;10952;50.836;4.348;2023-02-19T00:18:48;18.30;;;9.00;;
21581;SDS011;10952;50.836;4.348;2023-02-19T00:21:14;15.47;;;8.27;;
21581;SDS011;10952;50.836;4.348;2023-02-19T00:23:40;13.27;;;7.53;;
21581;SDS011;10952;50.836;4.348;2023-02-19T00:26:07;16.90;;;7.87;;
21581;SDS011;10952;50.836;4.348;2023-02-19T00:28:35;16.80;;;8.17;;
21581;SDS011;10952;50.836;4.348;2023-02-19T00:31:08;16.83;;;8.10;;
21581;SDS011;10952;50.836;4.348;2023-02-19T00:33:42;18.03;;;8.80;;
21581;SDS011;10952;50.836;4.348;2023-02-19T00:36:08;20.00;;;8.43;;
21581;SDS011;10952;50.836;4.348;2023-02-19T00:38:35;18.83;;;7.77;;
21581;SDS011;10952;50.836;4.348;2023-02-19T00:41:01;13.30;;;7.87;;
21581;SDS011;10952;50.836;4.348;2023-02-19T00:43:46;11.30;;;6.70;;
21581;SDS011;10952;50.836;4.348;2023-02-19T00:46:17;15.27;;;6.53;;
21581;SDS011;10952;50.836;4.348;2023-02-19T00:48:47;12.07;;;6.80;;
21581;SDS011;10952;50.836;4.348;2023-02-19T00:51:13;16.07;;;6.87;;
21581;SDS011;10952;50.836;4.348;2023-02-19T00:53:39;15.10;;;6.30;;
21581;SDS011;10952;50.836;4.348;2023-02-19T00:56:05;14.87;;;6.53;;
21581;SDS011;10952;50.836;4.348;2023-02-19T00:58:32;16.70;;;7.80;;
21581;SDS011;10952;50.836;4.348;2023-02-19T01:00:58;13.90;;;6.87;;
21581;SDS011;10952;50.836;4.348;2023-02-19T01:03:23;12.33;;;6.27;;
21581;SDS011;10952;50.836;4.348;2023-02-19T01:05:49;11.73;;;7.27;;
21581;SDS011;10952;50.836;4.348;2023-02-19T01:08:16;13.63;;;6.40;;
21581;SDS011;10952;50.836;4.348;2023-02-19T01:10:42;11.23;;;5.93;;
21581;SDS011;10952;50.836;4.348;2023-02-19T01:13:08;11.03;;;6.17;;
21581;SDS011;10952;50.836;4.348;2023-02-19T01:15:34;15.37;;;7.33;;
21581;SDS011;10952;50.836;4.348;2023-02-19T01:18:00;11.73;;;6.03;;
21581;SDS011;10952;50.836;4.348;2023-02-19T01:20:25;20.57;;;7.80;;
21581;SDS011;10952;50.836;4.348;2023-02-19T01:22:51;11.60;;;6.83;;
21581;SDS011;10952;50.836;4.348;2023-02-19T01:25:17;16.53;;;5.80;;
21581;SDS011;10952;50.836;4.348;2023-02-19T01:27:43;18.43;;;6.30;;
21581;SDS011;10952;50.836;4.348;2023-02-19T01:30:09;13.93;;;6.50;;
21581;SDS011;10952;50.836;4.348;2023-02-19T01:32:35;16.07;;;6.37;;
21581;SDS011;10952;50.836;4.348;2023-02-19T01:35:01;15.40;;;8.77;;
21581;SDS011;10952;50.836;4.348;2023-02-19T01:37:27;17.83;;;6.97;;
21581;SDS011;10952;50.836;4.348;2023-02-19T01:39:53;18.03;;;6.57;;
21581;SDS011;10952;50.836;4.348;2023-02-19T01:42:18;16.27;;;5.67;;
21581;SDS011;10952;50.836;4.348;2023-02-19T01:47:10;16.80;;;5.87;;
21581;SDS011;10952;50.836;4.348;2023-02-19T01:49:49;13.33;;;4.57;;
21581;SDS011;10952;50.836;4.348;2023-02-19T01:52:20;16.67;;;6.10;;
21581;SDS011;10952;50.836;4.348;2023-02-19T01:54:53;17.07;;;5.83;;
21581;SDS011;10952;50.836;4.348;2023-02-19T01:57:21;17.77;;;6.50;;
21581;SDS011;10952;50.836;4.348;2023-02-19T01:59:51;12.10;;;5.07;;
21581;SDS011;10952;50.836;4.348;2023-02-19T02:02:22;18.73;;;6.80;;
21581;SDS011;10952;50.836;4.348;2023-02-19T02:04:51;14.77;;;5.53;;
21581;SDS011;10952;50.836;4.348;2023-02-19T02:07:17;18.20;;;5.87;;
21581;SDS011;10952;50.836;4.348;2023-02-19T02:10:02;21.90;;;8.07;;
21581;SDS011;10952;50.836;4.348;2023-02-19T02:12:46;18.97;;;5.73;;
21581;SDS011;10952;50.836;4.348;2023-02-19T02:15:13;13.17;;;3.87;;
21581;SDS011;10952;50.836;4.348;2023-02-19T02:17:56;13.27;;;3.90;;
21581;SDS011;10952;50.836;4.348;2023-02-19T02:21:02;11.77;;;4.00;;
21581;SDS011;10952;50.836;4.348;2023-02-19T02:27:03;13.23;;;3.77;;
21581;SDS011;10952;50.836;4.348;2023-02-19T02:32:26;19.20;;;5.20;;
21581;SDS011;10952;50.836;4.348;2023-02-19T02:35:08;12.10;;;4.70;;
21581;SDS011;10952;50.836;4.348;2023-02-19T02:37:37;12.93;;;4.10;;
21581;SDS011;10952;50.836;4.348;2023-02-19T02:40:06;18.03;;;4.00;;
21581;SDS011;10952;50.836;4.348;2023-02-19T02:42:37;12.47;;;3.43;;
21581;SDS011;10952;50.836;4.348;2023-02-19T02:53:17;12.97;;;3.47;;
21581;SDS011;10952;50.836;4.348;2023-02-19T02:56:14;17.00;;;3.83;;
21581;SDS011;10952;50.836;4.348;2023-02-19T02:58:42;9.47;;;3.63;;
21581;SDS011;10952;50.836;4.348;2023-02-19T03:01:11;13.93;;;3.60;;
21581;SDS011;10952;50.836;4.348;2023-02-19T03:04:04;18.83;;;4.13;;
21581;SDS011;10952;50.836;4.348;2023-02-19T03:06:35;12.13;;;3.13;;
21581;SDS011;10952;50.836;4.348;2023-02-19T03:09:07;15.37;;;3.87;;
21581;SDS011;10952;50.836;4.348;2023-02-19T03:11:36;18.13;;;3.37;;
21581;SDS011;10952;50.836;4.348;2023-02-19T03:14:26;14.63;;;3.43;;
21581;SDS011;10952;50.836;4.348;2023-02-19T03:17:33;11.33;;;2.77;;
21581;SDS011;10952;50.836;4.348;2023-02-19T03:20:32;12.57;;;3.40;;
21581;SDS011;10952;50.836;4.348;2023-02-19T03:23:02;14.97;;;3.23;;
21581;SDS011;10952;50.836;4.348;2023-02-19T03:25:30;16.57;;;2.97;;
21581;SDS011;10952;50.836;4.348;2023-02-19T03:28:18;17.97;;;3.80;;
21581;SDS011;10952;50.836;4.348;2023-02-19T03:31:07;13.50;;;3.63;;
21581;SDS011;10952;50.836;4.348;2023-02-19T03:33:35;14.47;;;3.63;;
21581;SDS011;10952;50.836;4.348;2023-02-19T03:36:05;16.10;;;3.00;;
21581;SDS011;10952;50.836;4.348;2023-02-19T03:38:47;12.77;;;3.00;;
21581;SDS011;10952;50.836;4.348;2023-02-19T03:41:42;13.83;;;3.03;;
21581;SDS011;10952;50.836;4.348;2023-02-19T03:44:32;11.00;;;2.90;;
21581;SDS011;10952;50.836;4.348;2023-02-19T04:00:40;15.17;;;2.43;;
21581;SDS011;10952;50.836;4.348;2023-02-19T04:06:06;13.27;;;2.70;;
21581;SDS011;10952;50.836;4.348;2023-02-19T04:08:38;9.93;;;2.77;;
21581;SDS011;10952;50.836;4.348;2023-02-19T04:11:08;20.57;;;2.77;;
21581;SDS011;10952;50.836;4.348;2023-02-19T04:13:38;19.93;;;2.33;;
21581;SDS011;10952;50.836;4.348;2023-02-19T04:16:10;15.60;;;3.10;;
21581;SDS011;10952;50.836;4.348;2023-02-19T04:18:46;15.30;;;3.17;;
21581;SDS011;10952;50.836;4.348;2023-02-19T04:21:15;15.50;;;2.83;;
21581;SDS011;10952;50.836;4.348;2023-02-19T04:23:43;15.67;;;3.53;;
21581;SDS011;10952;50.836;4.348;2023-02-19T04:26:10;14.83;;;2.83;;
21581;SDS011;10952;50.836;4.348;2023-02-19T04:28:37;18.90;;;2.73;;
21581;SDS011;10952;50.836;4.348;2023-02-19T04:31:03;15.43;;;3.10;;
21581;SDS011;10952;50.836;4.348;2023-02-19T04:33:30;15.80;;;2.97;;
21581;SDS011;10952;50.836;4.348;2023-02-19T04:35:55;18.93;;;3.20;;
21581;SDS011;10952;50.836;4.348;2023-02-19T04:38:21;17.93;;;3.10;;
21581;SDS011;10952;50.836;4.348;2023-02-19T04:40:47;14.90;;;3.43;;
21581;SDS011;10952;50.836;4.348;2023-02-19T04:43:15;12.57;;;2.70;;
21581;SDS011;10952;50.836;4.348;2023-02-19T04:45:41;14.20;;;3.27;;
21581;SDS011;10952;50.836;4.348;2023-02-19T04:48:07;14.70;;;2.27;;
21581;SDS011;10952;50.836;4.348;2023-02-19T04:50:33;21.27;;;5.27;;
21581;SDS011;10952;50.836;4.348;2023-02-19T04:52:58;13.47;;;2.40;;
21581;SDS011;10952;50.836;4.348;2023-02-19T04:55:24;10.97;;;2.60;;
21581;SDS011;10952;50.836;4.348;2023-02-19T04:57:50;13.87;;;2.77;;
21581;SDS011;10952;50.836;4.348;2023-02-19T05:00:15;14.50;;;2.90;;
21581;SDS011;10952;50.836;4.348;2023-02-19T05:02:41;9.53;;;2.77;;
21581;SDS011;10952;50.836;4.348;2023-02-19T05:05:07;14.50;;;2.73;;
21581;SDS011;10952;50.836;4.348;2023-02-19T05:07:32;21.90;;;2.73;;
21581;SDS011;10952;50.836;4.348;2023-02-19T05:09:58;20.17;;;3.63;;
21581;SDS011;10952;50.836;4.348;2023-02-19T05:12:24;21.47;;;3.63;;
21581;SDS011;10952;50.836;4.348;2023-02-19T05:14:50;11.10;;;2.90;;
21581;SDS011;10952;50.836;4.348;2023-02-19T05:17:16;16.63;;;2.50;;
21581;SDS011;10952;50.836;4.348;2023-02-19T05:19:41;12.10;;;2.80;;
21581;SDS011;10952;50.836;4.348;2023-02-19T05:22:07;16.67;;;2.83;;
21581;SDS011;10952;50.836;4.348;2023-02-19T05:24:33;11.93;;;2.73;;
21581;SDS011;10952;50.836;4.348;2023-02-19T05:26:58;19.70;;;3.27;;
21581;SDS011;10952;50.836;4.348;2023-02-19T05:29:24;20.77;;;3.30;;
21581;SDS011;10952;50.836;4.348;2023-02-19T05:31:50;18.37;;;3.37;;
21581;SDS011;10952;50.836;4.348;2023-02-19T05:34:15;13.93;;;3.17;;
21581;SDS011;10952;50.836;4.348;2023-02-19T05:36:41;16.03;;;2.97;;
21581;SDS011;10952;50.836;4.348;2023-02-19T05:39:08;13.13;;;2.60;;
21581;SDS011;10952;50.836;4.348;2023-02-19T05:41:35;15.30;;;3.20;;
21581;SDS011;10952;50.836;4.348;2023-02-19T05:44:01;19.03;;;3.37;;
21581;SDS011;10952;50.836;4.348;2023-02-19T05:46:27;10.87;;;2.70;;
21581;SDS011;10952;50.836;4.348;2023-02-19T05:48:54;24.07;;;3.33;;
21581;SDS011;10952;50.836;4.348;2023-02-19T05:51:20;14.83;;;3.10;;
21581;SDS011;10952;50.836;4.348;2023-02-19T05:53:48;15.93;;;3.00;;
21581;SDS011;10952;50.836;4.348;2023-02-19T05:59:23;9.63;;;2.13;;
21581;SDS011;10952;50.836;4.348;2023-02-19T06:01:51;14.10;;;2.77;;
21581;SDS011;10952;50.836;4.348;2023-02-19T06:04:18;14.70;;;2.80;;
21581;SDS011;10952;50.836;4.348;2023-02-19T06:06:44;17.73;;;3.20;;
21581;SDS011;10952;50.836;4.348;2023-02-19T06:09:11;16.87;;;3.23;;
21581;SDS011;10952;50.836;4.348;2023-02-19T06:11:38;9.27;;;2.13;;
21581;SDS011;10952;50.836;4.348;2023-02-19T06:14:04;10.87;;;2.50;;
21581;SDS011;10952;50.836;4.348;2023-02-19T06:16:30;17.70;;;5.17;;
21581;SDS011;10952;50.836;4.348;2023-02-19T06:18:57;15.67;;;3.23;;
21581;SDS011;10952;50.836;4.348;2023-02-19T06:21:25;13.33;;;2.57;;
21581;SDS011;10952;50.836;4.348;2023-02-19T06:23:51;14.37;;;2.83;;
21581;SDS011;10952;50.836;4.348;2023-02-19T06:26:18;16.93;;;2.67;;
21581;SDS011;10952;50.836;4.348;2023-02-19T06:28:45;16.30;;;2.77;;
21581;SDS011;10952;50.836;4.348;2023-02-19T06:31:12;13.87;;;2.47;;
21581;SDS011;10952;50.836;4.348;2023-02-19T06:33:38;10.87;;;3.27;;
21581;SDS011;10952;50.836;4.348;2023-02-19T06:36:05;9.17;;;2.60;;
21581;SDS011;10952;50.836;4.348;2023-02-19T06:38:34;15.47;;;3.07;;
21581;SDS011;10952;50.836;4.348;2023-02-19T06:41:00;14.93;;;2.57;;
21581;SDS011;10952;50.836;4.348;2023-02-19T06:43:27;19.07;;;3.00;;
21581;SDS011;10952;50.836;4.348;2023-02-19T06:45:53;13.00;;;2.80;;
21581;SDS011;10952;50.836;4.348;2023-02-19T06:48:21;14.50;;;2.80;;
21581;SDS011;10952;50.836;4.348;2023-02-19T06:50:47;16.33;;;2.83;;
21581;SDS011;10952;50.836;4.348;2023-02-19T06:53:12;16.07;;;2.67;;
21581;SDS011;10952;50.836;4.348;2023-02-19T06:55:38;14.83;;;2.60;;
21581;SDS011;10952;50.836;4.348;2023-02-19T06:58:04;19.30;;;3.40;;
21581;SDS011;10952;50.836;4.348;2023-02-19T07:00:31;13.67;;;2.77;;
21581;SDS011;10952;50.836;4.348;2023-02-19T07:02:58;18.07;;;3.17;;
21581;SDS011;10952;50.836;4.348;2023-02-19T07:05:23;16.37;;;3.37;;
21581;SDS011;10952;50.836;4.348;2023-02-19T07:07:49;22.67;;;4.43;;
21581;SDS011;10952;50.836;4.348;2023-02-19T07:10:15;16.63;;;3.03;;
21581;SDS011;10952;50.836;4.348;2023-02-19T07:12:41;14.83;;;2.47;;
21581;SDS011;10952;50.836;4.348;2023-02-19T07:15:07;15.03;;;2.87;;
21581;SDS011;10952;50.836;4.348;2023-02-19T07:17:33;10.97;;;2.63;;
21581;SDS011;10952;50.836;4.348;2023-02-19T07:19:59;9.23;;;3.20;;
21581;SDS011;10952;50.836;4.348;2023-02-19T07:22:25;10.43;;;2.30;;
21581;SDS011;10952;50.836;4.348;2023-02-19T07:24:50;16.57;;;3.00;;
21581;SDS011;10952;50.836;4.348;2023-02-19T07:27:16;11.00;;;2.77;;
21581;SDS011;10952;50.836;4.348;2023-02-19T07:29:42;13.73;;;3.33;;
21581;SDS011;10952;50.836;4.348;2023-02-19T07:32:07;9.80;;;2.63;;
21581;SDS011;10952;50.836;4.348;2023-02-19T07:34:33;14.23;;;3.20;;
21581;SDS011;10952;50.836;4.348;2023-02-19T07:36:59;16.30;;;3.27;;
21581;SDS011;10952;50.836;4.348;2023-02-19T07:39:24;13.33;;;2.73;;
21581;SDS011;10952;50.836;4.348;2023-02-19T07:41:50;14.47;;;2.93;;
21581;SDS011;10952;50.836;4.348;2023-02-19T07:44:16;16.47;;;3.73;;
21581;SDS011;10952;50.836;4.348;2023-02-19T07:46:42;17.60;;;3.00;;
21581;SDS011;10952;50.836;4.348;2023-02-19T07:49:08;13.53;;;3.23;;
21581;SDS011;10952;50.836;4.348;2023-02-19T07:51:34;13.73;;;3.57;;
21581;SDS011;10952;50.836;4.348;2023-02-19T07:53:59;12.87;;;3.17;;
21581;SDS011;10952;50.836;4.348;2023-02-19T07:56:25;17.03;;;2.97;;
21581;SDS011;10952;50.836;4.348;2023-02-19T07:58:52;24.23;;;3.53;;
21581;SDS011;10952;50.836;4.348;2023-02-19T08:01:21;13.00;;;3.23;;
21581;SDS011;10952;50.836;4.348;2023-02-19T08:04:06;10.47;;;2.87;;
21581;SDS011;10952;50.836;4.348;2023-02-19T08:06:34;18.60;;;2.77;;
21581;SDS011;10952;50.836;4.348;2023-02-19T08:09:00;16.03;;;3.43;;
21581;SDS011;10952;50.836;4.348;2023-02-19T08:11:25;13.37;;;3.80;;
21581;SDS011;10952;50.836;4.348;2023-02-19T08:14:17;12.33;;;2.70;;
21581;SDS011;10952;50.836;4.348;2023-02-19T08:16:49;14.83;;;2.97;;
21581;SDS011;10952;50.836;4.348;2023-02-19T08:19:16;15.23;;;2.67;;
21581;SDS011;10952;50.836;4.348;2023-02-19T08:21:41;10.60;;;2.70;;
21581;SDS011;10952;50.836;4.348;2023-02-19T08:24:07;12.80;;;2.97;;
21581;SDS011;10952;50.836;4.348;2023-02-19T08:26:33;18.03;;;3.03;;
21581;SDS011;10952;50.836;4.348;2023-02-19T08:28:59;16.07;;;2.80;;
21581;SDS011;10952;50.836;4.348;2023-02-19T08:31:25;11.30;;;2.77;;
21581;SDS011;10952;50.836;4.348;2023-02-19T08:33:51;14.57;;;2.63;;
21581;SDS011;10952;50.836;4.348;2023-02-19T08:36:17;14.13;;;2.23;;
21581;SDS011;10952;50.836;4.348;2023-02-19T08:38:42;10.50;;;2.43;;
21581;SDS011;10952;50.836;4.348;2023-02-19T08:41:09;13.17;;;3.50;;
21581;SDS011;10952;50.836;4.348;2023-02-19T08:43:36;14.97;;;3.20;;
21581;SDS011;10952;50.836;4.348;2023-02-19T08:46:03;16.20;;;2.90;;
21581;SDS011;10952;50.836;4.348;2023-02-19T08:48:30;13.23;;;2.73;;
21581;SDS011;10952;50.836;4.348;2023-02-19T08:50:56;11.20;;;3.07;;
21581;SDS011;10952;50.836;4.348;2023-02-19T08:53:31;16.40;;;2.90;;
21581;SDS011;10952;50.836;4.348;2023-02-19T08:55:57;8.60;;;2.50;;
21581;SDS011;10952;50.836;4.348;2023-02-19T08:58:23;14.07;;;2.60;;
21581;SDS011;10952;50.836;4.348;2023-02-19T09:00:52;11.23;;;2.97;;
21581;SDS011;10952;50.836;4.348;2023-02-19T09:03:17;10.50;;;2.93;;
21581;SDS011;10952;50.836;4.348;2023-02-19T09:05:43;11.27;;;3.17;;
21581;SDS011;10952;50.836;4.348;2023-02-19T09:08:11;11.50;;;3.27;;
21581;SDS011;10952;50.836;4.348;2023-02-19T09:10:37;16.27;;;6.60;;
21581;SDS011;10952;50.836;4.348;2023-02-19T09:13:03;11.63;;;3.07;;
21581;SDS011;10952;50.836;4.348;2023-02-19T09:15:29;20.67;;;3.83;;
21581;SDS011;10952;50.836;4.348;2023-02-19T09:17:56;13.53;;;3.33;;
21581;SDS011;10952;50.836;4.348;2023-02-19T09:20:22;14.37;;;3.63;;
21581;SDS011;10952;50.836;4.348;2023-02-19T09:22:47;11.90;;;3.10;;
21581;SDS011;10952;50.836;4.348;2023-02-19T09:25:13;10.30;;;3.30;;
21581;SDS011;10952;50.836;4.348;2023-02-19T09:27:38;12.07;;;3.43;;
21581;SDS011;10952;50.836;4.348;2023-02-19T09:30:04;12.27;;;3.10;;
21581;SDS011;10952;50.836;4.348;2023-02-19T09:32:30;12.80;;;3.17;;
21581;SDS011;10952;50.836;4.348;2023-02-19T09:34:57;14.87;;;2.97;;
21581;SDS011;10952;50.836;4.348;2023-02-19T09:37:25;15.33;;;3.03;;
21581;SDS011;10952;50.836;4.348;2023-02-19T09:39:52;8.73;;;3.13;;
21581;SDS011;10952;50.836;4.348;2023-02-19T09:42:19;14.97;;;3.07;;
21581;SDS011;10952;50.836;4.348;2023-02-19T09:44:54;14.23;;;3.60;;
21581;SDS011;10952;50.836;4.348;2023-02-19T09:47:23;9.50;;;3.03;;
21581;SDS011;10952;50.836;4.348;2023-02-19T09:50:30;14.07;;;3.63;;
21581;SDS011;10952;50.836;4.348;2023-02-19T09:52:55;14.20;;;3.50;;
21581;SDS011;10952;50.836;4.348;2023-02-19T09:55:33;16.57;;;3.47;;
21581;SDS011;10952;50.836;4.348;2023-02-19T09:58:23;12.40;;;3.67;;
21581;SDS011;10952;50.836;4.348;2023-02-19T10:00:48;9.67;;;3.07;;
21581;SDS011;10952;50.836;4.348;2023-02-19T10:03:34;10.97;;;2.97;;
21581;SDS011;10952;50.836;4.348;2023-02-19T10:06:36;12.30;;;3.00;;
21581;SDS011;10952;50.836;4.348;2023-02-19T10:09:05;20.23;;;3.70;;
21581;SDS011;10952;50.836;4.348;2023-02-19T10:11:40;10.37;;;2.97;;
21581;SDS011;10952;50.836;4.348;2023-02-19T10:14:07;11.10;;;2.97;;
21581;SDS011;10952;50.836;4.348;2023-02-19T10:16:46;15.70;;;4.13;;
21581;SDS011;10952;50.836;4.348;2023-02-19T10:19:14;12.63;;;3.47;;
21581;SDS011;10952;50.836;4.348;2023-02-19T10:21:40;14.33;;;3.20;;
21581;SDS011;10952;50.836;4.348;2023-02-19T10:24:06;12.57;;;3.50;;
21581;SDS011;10952;50.836;4.348;2023-02-19T10:26:38;7.43;;;3.13;;
21581;SDS011;10952;50.836;4.348;2023-02-19T10:29:03;14.33;;;3.00;;
21581;SDS011;10952;50.836;4.348;2023-02-19T10:31:30;15.33;;;3.03;;
21581;SDS011;10952;50.836;4.348;2023-02-19T10:33:57;10.07;;;3.00;;
21581;SDS011;10952;50.836;4.348;2023-02-19T10:36:27;15.03;;;3.90;;
21581;SDS011;10952;50.836;4.348;2023-02-19T10:38:56;11.47;;;3.67;;
21581;SDS011;10952;50.836;4.348;2023-02-19T10:41:23;12.33;;;3.20;;
21581;SDS011;10952;50.836;4.348;2023-02-19T10:46:40;13.13;;;3.30;;
21581;SDS011;10952;50.836;4.348;2023-02-19T10:49:25;11.37;;;3.80;;
21581;SDS011;10952;50.836;4.348;2023-02-19T10:51:54;14.17;;;3.80;;
21581;SDS011;10952;50.836;4.348;2023-02-19T10:59:40;11.87;;;3.30;;
21581;SDS011;10952;50.836;4.348;2023-02-19T11:02:18;14.43;;;3.70;;
21581;SDS011;10952;50.836;4.348;2023-02-19T11:07:46;14.97;;;3.67;;
21581;SDS011;10952;50.836;4.348;2023-02-19T11:10:37;12.57;;;2.97;;
21581;SDS011;10952;50.836;4.348;2023-02-19T11:13:05;15.23;;;3.37;;
21581;SDS011;10952;50.836;4.348;2023-02-19T11:15:37;10.57;;;3.03;;
21581;SDS011;10952;50.836;4.348;2023-02-19T11:18:13;10.43;;;3.03;;
21581;SDS011;10952;50.836;4.348;2023-02-19T11:20:53;9.77;;;2.80;;
21581;SDS011;10952;50.836;4.348;2023-02-19T11:23:42;9.30;;;3.27;;
21581;SDS011;10952;50.836;4.348;2023-02-19T11:26:19;17.03;;;4.10;;
21581;SDS011;10952;50.836;4.348;2023-02-19T11:28:55;11.17;;;3.73;;
21581;SDS011;10952;50.836;4.348;2023-02-19T11:31:29;14.03;;;4.10;;
21581;SDS011;10952;50.836;4.348;2023-02-19T11:34:20;11.33;;;3.23;;
21581;SDS011;10952;50.836;4.348;2023-02-19T11:37:06;12.07;;;3.63;;
21581;SDS011;10952;50.836;4.348;2023-02-19T11:39:32;17.17;;;3.87;;
21581;SDS011;10952;50.836;4.348;2023-02-19T12:00:25;9.43;;;3.10;;
21581;SDS011;10952;50.836;4.348;2023-02-19T12:05:30;10.73;;;3.57;;
21581;SDS011;10952;50.836;4.348;2023-02-19T12:10:31;10.70;;;3.87;;
21581;SDS011;10952;50.836;4.348;2023-02-19T12:16:06;7.93;;;3.10;;
21581;SDS011;10952;50.836;4.348;2023-02-19T12:19:17;15.57;;;4.87;;
21581;SDS011;10952;50.836;4.348;2023-02-19T12:28:03;12.53;;;4.60;;
21581;SDS011;10952;50.836;4.348;2023-02-19T12:31:06;10.47;;;3.77;;
21581;SDS011;10952;50.836;4.348;2023-02-19T12:33:59;9.63;;;2.97;;
21581;SDS011;10952;50.836;4.348;2023-02-19T12:36:34;9.70;;;3.53;;
21581;SDS011;10952;50.836;4.348;2023-02-19T12:41:54;10.83;;;3.77;;
21581;SDS011;10952;50.836;4.348;2023-02-19T12:44:25;8.43;;;3.20;;
21581;SDS011;10952;50.836;4.348;2023-02-19T12:47:17;8.03;;;3.13;;
21581;SDS011;10952;50.836;4.348;2023-02-19T12:49:49;10.40;;;3.37;;
21581;SDS011;10952;50.836;4.348;2023-02-19T12:52:36;11.43;;;3.90;;
21581;SDS011;10952;50.836;4.348;2023-02-19T12:55:21;8.67;;;2.97;;
21581;SDS011;10952;50.836;4.348;2023-02-19T12:57:53;10.03;;;3.30;;
21581;SDS011;10952;50.836;4.348;2023-02-19T13:00:31;10.50;;;3.30;;
21581;SDS011;10952;50.836;4.348;2023-02-19T13:03:11;7.77;;;2.50;;
21581;SDS011;10952;50.836;4.348;2023-02-19T13:11:43;6.97;;;2.70;;
21581;SDS011;10952;50.836;4.348;2023-02-19T13:14:29;10.40;;;3.20;;
21581;SDS011;10952;50.836;4.348;2023-02-19T13:22:56;6.87;;;2.90;;
21581;SDS011;10952;50.836;4.348;2023-02-19T13:28:42;17.13;;;3.27;;
21581;SDS011;10952;50.836;4.348;2023-02-19T13:34:12;7.43;;;2.83;;
21581;SDS011;10952;50.836;4.348;2023-02-19T13:36:58;6.93;;;3.17;;
21581;SDS011;10952;50.836;4.348;2023-02-19T13:39:24;13.53;;;3.87;;
21581;SDS011;10952;50.836;4.348;2023-02-19T13:41:53;7.40;;;4.17;;
21581;SDS011;10952;50.836;4.348;2023-02-19T13:44:22;10.40;;;3.63;;
21581;SDS011;10952;50.836;4.348;2023-02-19T13:46:51;14.33;;;3.93;;
21581;SDS011;10952;50.836;4.348;2023-02-19T13:52:31;13.30;;;4.07;;
21581;SDS011;10952;50.836;4.348;2023-02-19T14:01:07;11.93;;;3.90;;
21581;SDS011;10952;50.836;4.348;2023-02-19T14:06:17;13.73;;;3.57;;
21581;SDS011;10952;50.836;4.348;2023-02-19T14:08:47;11.20;;;4.23;;
21581;SDS011;10952;50.836;4.348;2023-02-19T14:11:13;9.37;;;3.27;;
21581;SDS011;10952;50.836;4.348;2023-02-19T14:16:27;11.03;;;4.50;;
21581;SDS011;10952;50.836;4.348;2023-02-19T14:18:59;11.87;;;4.23;;
21581;SDS011;10952;50.836;4.348;2023-02-19T14:21:33;7.93;;;3.23;;
21581;SDS011;10952;50.836;4.348;2023-02-19T14:24:00;7.57;;;3.23;;
21581;SDS011;10952;50.836;4.348;2023-02-19T14:26:26;11.20;;;4.53;;
21581;SDS011;10952;50.836;4.348;2023-02-19T14:28:58;11.67;;;4.73;;
21581;SDS011;10952;50.836;4.348;2023-02-19T14:31:29;10.27;;;4.07;;
21581;SDS011;10952;50.836;4.348;2023-02-19T14:33:59;8.47;;;4.47;;
21581;SDS011;10952;50.836;4.348;2023-02-19T14:39:10;13.43;;;5.10;;
21581;SDS011;10952;50.836;4.348;2023-02-19T14:41:39;10.83;;;4.27;;
21581;SDS011;10952;50.836;4.348;2023-02-19T14:44:15;7.43;;;3.20;;
21581;SDS011;10952;50.836;4.348;2023-02-19T14:46:57;8.83;;;3.37;;
21581;SDS011;10952;50.836;4.348;2023-02-19T14:49:44;9.87;;;3.70;;
21581;SDS011;10952;50.836;4.348;2023-02-19T14:52:23;7.17;;;3.37;;
21581;SDS011;10952;50.836;4.348;2023-02-19T14:57:47;11.87;;;3.67;;
21581;SDS011;10952;50.836;4.348;2023-02-19T15:00:24;7.87;;;3.50;;
21581;SDS011;10952;50.836;4.348;2023-02-19T15:02:54;10.83;;;4.20;;
21581;SDS011;10952;50.836;4.348;2023-02-19T15:05:23;8.27;;;3.70;;
21581;SDS011;10952;50.836;4.348;2023-02-19T15:07:51;10.77;;;3.93;;
21581;SDS011;10952;50.836;4.348;2023-02-19T15:10:19;6.37;;;3.53;;
21581;SDS011;10952;50.836;4.348;2023-02-19T15:12:49;8.73;;;3.47;;
21581;SDS011;10952;50.836;4.348;2023-02-19T15:15:20;7.87;;;3.20;;
21581;SDS011;10952;50.836;4.348;2023-02-19T15:17:48;14.53;;;4.17;;
21581;SDS011;10952;50.836;4.348;2023-02-19T15:20:17;8.17;;;3.07;;
21581;SDS011;10952;50.836;4.348;2023-02-19T15:22:53;8.33;;;3.43;;
21581;SDS011;10952;50.836;4.348;2023-02-19T15:25:21;7.90;;;3.13;;
21581;SDS011;10952;50.836;4.348;2023-02-19T15:27:50;7.67;;;4.10;;
21581;SDS011;10952;50.836;4.348;2023-02-19T15:30:24;9.10;;;3.17;;
21581;SDS011;10952;50.836;4.348;2023-02-19T15:32:53;8.17;;;4.43;;
21581;SDS011;10952;50.836;4.348;2023-02-19T15:35:21;9.00;;;4.13;;
21581;SDS011;10952;50.836;4.348;2023-02-19T15:37:48;9.67;;;3.80;;
21581;SDS011;10952;50.836;4.348;2023-02-19T15:40:15;10.30;;;5.03;;
21581;SDS011;10952;50.836;4.348;2023-02-19T15:42:42;10.40;;;5.50;;
21581;SDS011;10952;50.836;4.348;2023-02-19T15:45:22;7.97;;;3.67;;
21581;SDS011;10952;50.836;4.348;2023-02-19T15:48:03;9.93;;;3.63;;
21581;SDS011;10952;50.836;4.348;2023-02-19T15:50:33;12.60;;;4.03;;
21581;SDS011;10952;50.836;4.348;2023-02-19T15:55:44;11.47;;;3.70;;
21581;SDS011;10952;50.836;4.348;2023-02-19T15:58:23;10.03;;;4.13;;
21581;SDS011;10952;50.836;4.348;2023-02-19T16:00:53;8.67;;;4.13;;
21581;SDS011;10952;50.836;4.348;2023-02-19T16:03:21;8.87;;;4.10;;
21581;SDS011;10952;50.836;4.348;2023-02-19T16:06:10;10.80;;;4.27;;
21581;SDS011;10952;50.836;4.348;2023-02-19T16:08:39;7.73;;;4.27;;
21581;SDS011;10952;50.836;4.348;2023-02-19T16:13:47;9.83;;;4.87;;
21581;SDS011;10952;50.836;4.348;2023-02-19T16:18:42;8.07;;;4.20;;
21581;SDS011;10952;50.836;4.348;2023-02-19T16:21:10;8.90;;;4.60;;
21581;SDS011;10952;50.836;4.348;2023-02-19T16:23:41;15.53;;;5.37;;
21581;SDS011;10952;50.836;4.348;2023-02-19T16:26:08;10.97;;;4.90;;
21581;SDS011;10952;50.836;4.348;2023-02-19T16:28:37;10.93;;;4.90;;
21581;SDS011;10952;50.836;4.348;2023-02-19T16:31:08;10.87;;;5.07;;
21581;SDS011;10952;50.836;4.348;2023-02-19T16:36:17;12.87;;;5.03;;
21581;SDS011;10952;50.836;4.348;2023-02-19T16:38:58;12.37;;;4.67;;
21581;SDS011;10952;50.836;4.348;2023-02-19T16:41:27;16.13;;;4.83;;
21581;SDS011;10952;50.836;4.348;2023-02-19T16:43:53;7.47;;;4.47;;
21581;SDS011;10952;50.836;4.348;2023-02-19T16:46:18;9.40;;;4.73;;
21581;SDS011;10952;50.836;4.348;2023-02-19T16:48:44;9.80;;;4.67;;
21581;SDS011;10952;50.836;4.348;2023-02-19T16:51:13;13.83;;;5.13;;
21581;SDS011;10952;50.836;4.348;2023-02-19T16:53:45;10.43;;;4.67;;
21581;SDS011;10952;50.836;4.348;2023-02-19T16:56:15;9.70;;;4.50;;
21581;SDS011;10952;50.836;4.348;2023-02-19T16:58:47;10.07;;;4.90;;
21581;SDS011;10952;50.836;4.348;2023-02-19T17:01:13;10.13;;;5.60;;
21581;SDS011;10952;50.836;4.348;2023-02-19T17:03:39;13.07;;;5.13;;
21581;SDS011;10952;50.836;4.348;2023-02-19T17:06:05;9.93;;;4.80;;
21581;SDS011;10952;50.836;4.348;2023-02-19T17:08:32;12.57;;;5.10;;